createdAt,value
2023-03-23T15:58:55.947Z,16.00
2023-03-23T16:01:30.012Z,16.20
2023-03-23T16:04:03.271Z,16.20
2023-03-23T16:06:31.549Z,16.40
2023-03-23T16:08:59.076Z,16.30
2023-03-23T16:11:30.395Z,16.20
2023-03-23T16:13:57.958Z,16.20
2023-03-23T16:16:40.702Z,16.10
2023-03-23T16:19:08.159Z,16.00
2023-03-23T16:21:35.676Z,16.00
2023-03-23T16:24:03.252Z,15.90
2023-03-23T16:26:30.783Z,15.80
2023-03-23T16:29:09.613Z,15.80
2023-03-23T16:31:25.872Z,16.00
2023-03-23T16:33:53.405Z,15.90
2023-03-23T16:36:21.742Z,15.70
2023-03-23T16:38:51.550Z,15.70
2023-03-23T16:41:16.813Z,15.60
2023-03-23T16:43:45.103Z,15.50
2023-03-23T16:46:12.695Z,15.50
2023-03-23T16:48:40.240Z,15.40
2023-03-23T16:51:07.763Z,15.40
2023-03-23T16:53:36.122Z,15.30
2023-03-23T16:56:03.642Z,15.30
2023-03-23T16:58:31.193Z,15.30
2023-03-23T17:00:58.765Z,15.30
2023-03-23T17:03:26.389Z,15.20
2023-03-23T17:05:53.848Z,15.20
2023-03-23T17:08:21.466Z,15.10
2023-03-23T17:10:48.990Z,15.10
2023-03-23T17:13:16.518Z,15.00
2023-03-23T17:15:46.668Z,15.20
2023-03-23T17:18:11.612Z,15.20
2023-03-23T17:20:39.925Z,15.00
2023-03-23T17:23:07.520Z,15.00
2023-03-23T17:25:35.032Z,14.90
2023-03-23T17:28:05.571Z,14.80
2023-03-23T17:30:31.223Z,14.80
2023-03-23T17:32:58.828Z,14.70
2023-03-23T17:35:26.292Z,14.70
2023-03-23T17:37:53.873Z,14.90
2023-03-23T17:40:21.387Z,15.10
2023-03-23T17:42:49.692Z,14.80
2023-03-23T17:45:18.203Z,14.70
2023-03-23T17:47:45.938Z,14.70
2023-03-23T17:50:13.419Z,14.60
2023-03-23T17:52:40.974Z,14.50
2023-03-23T17:55:08.562Z,14.70
2023-03-23T17:57:36.086Z,14.60
2023-03-23T18:00:03.664Z,14.50
2023-03-23T18:02:31.257Z,14.40
2023-03-23T18:04:58.707Z,14.30
2023-03-23T18:07:26.301Z,14.20
2023-03-23T18:09:53.819Z,14.20
2023-03-23T18:12:21.351Z,14.10
2023-03-23T18:14:48.947Z,14.10
2023-03-23T18:17:16.474Z,14.00
2023-03-23T18:19:44.017Z,14.00
2023-03-23T18:22:11.581Z,14.00
2023-03-23T18:24:39.115Z,13.90
2023-03-23T18:27:07.402Z,13.90
2023-03-23T18:29:35.006Z,13.90
2023-03-23T18:32:02.558Z,13.90
2023-03-23T18:34:30.075Z,13.80
2023-03-23T18:36:57.677Z,13.80
2023-03-23T18:39:25.946Z,13.80
2023-03-23T18:41:53.379Z,13.80
2023-03-23T18:44:20.964Z,13.80
2023-03-23T18:46:48.490Z,14.00
2023-03-23T18:49:16.026Z,14.00
2023-03-23T18:51:44.421Z,14.00
2023-03-23T18:54:11.906Z,13.90
2023-03-23T18:56:39.472Z,13.90
2023-03-23T18:59:07.030Z,13.80
2023-03-23T19:01:34.613Z,13.80
2023-03-23T19:04:02.092Z,13.80
2023-03-23T19:06:30.426Z,13.70
2023-03-23T19:08:58.050Z,13.70
2023-03-23T19:11:25.532Z,13.60
2023-03-23T19:14:01.565Z,13.60
2023-03-23T19:16:21.527Z,13.80
2023-03-23T19:18:49.006Z,13.70
2023-03-23T19:21:20.530Z,13.60
2023-03-23T19:23:44.959Z,13.60
2023-03-23T19:26:12.495Z,13.60
2023-03-23T19:31:08.388Z,13.50
2023-03-23T19:33:35.919Z,13.50
2023-03-23T19:36:11.053Z,13.70
2023-03-23T19:38:31.027Z,13.70
2023-03-23T19:40:58.737Z,13.70
2023-03-23T19:43:27.663Z,13.60
2023-03-23T19:45:54.445Z,13.60
2023-03-23T19:48:22.089Z,13.60
2023-03-23T19:50:49.627Z,13.60
2023-03-23T19:53:17.961Z,13.60
2023-03-23T19:55:45.383Z,13.60
2023-03-23T19:58:13.934Z,13.60
2023-03-23T20:00:40.456Z,13.60
2023-03-23T20:03:08.953Z,13.70
2023-03-23T20:05:36.338Z,13.60
2023-03-23T20:08:04.742Z,13.70
2023-03-23T20:10:32.186Z,13.60
2023-03-23T20:12:59.749Z,13.60
2023-03-23T20:15:27.284Z,13.60
2023-03-23T20:17:57.795Z,13.70
2023-03-23T20:20:23.738Z,13.70
2023-03-23T20:22:53.474Z,13.70
2023-03-23T20:25:19.033Z,13.70
2023-03-23T20:27:47.366Z,13.70
2023-03-23T20:30:14.898Z,13.60
2023-03-23T20:32:42.579Z,13.70
2023-03-23T20:35:10.139Z,13.80
2023-03-23T20:37:40.120Z,13.80
2023-03-23T20:40:07.640Z,13.80
2023-03-23T20:42:35.234Z,14.00
2023-03-23T20:45:02.778Z,13.90
2023-03-23T20:47:30.330Z,13.80
2023-03-23T20:49:57.892Z,13.70
2023-03-23T20:52:26.210Z,13.60
2023-03-23T20:54:53.728Z,13.60
2023-03-23T20:57:22.093Z,13.40
2023-03-23T20:59:49.604Z,13.40
2023-03-23T21:02:17.151Z,13.40
2023-03-23T21:04:44.702Z,13.40
2023-03-23T21:07:12.254Z,13.40
2023-03-23T21:09:40.540Z,13.40
2023-03-23T21:12:08.118Z,13.30
2023-03-23T21:14:35.687Z,13.30
2023-03-23T21:17:03.181Z,13.30
2023-03-23T21:19:30.770Z,13.30
2023-03-23T21:21:59.055Z,13.20
2023-03-23T21:24:26.809Z,13.20
2023-03-23T21:26:54.320Z,13.20
2023-03-23T21:29:21.847Z,13.40
2023-03-23T21:31:57.656Z,13.40
2023-03-23T21:34:16.968Z,13.40
2023-03-23T21:36:44.498Z,13.30
2023-03-23T21:39:12.033Z,13.30
2023-03-23T21:41:41.711Z,13.20
2023-03-23T21:44:08.039Z,13.20
2023-03-23T21:46:35.568Z,13.20
2023-03-23T21:49:03.153Z,13.30
2023-03-23T21:51:30.678Z,13.30
2023-03-23T21:53:58.228Z,13.20
2023-03-23T21:56:26.599Z,13.20
2023-03-23T21:58:54.117Z,13.10
2023-03-23T22:01:21.692Z,13.10
2023-03-23T22:03:49.273Z,13.10
2023-03-23T22:06:18.867Z,13.20
2023-03-23T22:08:46.389Z,13.20
2023-03-23T22:11:13.979Z,13.20
2023-03-23T22:13:41.512Z,13.10
2023-03-23T22:16:09.083Z,13.00
2023-03-23T22:18:36.899Z,12.90
2023-03-23T22:21:04.428Z,13.20
2023-03-23T22:23:32.729Z,13.00
2023-03-23T22:26:00.280Z,13.00
2023-03-23T22:28:27.837Z,12.90
2023-03-23T22:30:56.170Z,13.00
2023-03-23T22:33:23.727Z,13.00
2023-03-23T22:35:51.350Z,13.00
2023-03-23T22:38:18.836Z,12.90
2023-03-23T22:40:46.561Z,12.80
2023-03-23T22:43:13.963Z,12.80
2023-03-23T22:45:41.524Z,12.80
2023-03-23T22:48:09.025Z,12.70
2023-03-23T22:50:37.370Z,12.70
2023-03-23T22:53:04.905Z,12.70
2023-03-23T22:55:32.421Z,12.60
2023-03-23T22:58:00.801Z,12.60
2023-03-23T23:00:29.104Z,12.60
2023-03-23T23:02:56.705Z,12.60
2023-03-23T23:05:25.059Z,12.60
2023-03-23T23:07:52.574Z,12.60
2023-03-23T23:10:20.870Z,12.50
2023-03-23T23:12:48.736Z,12.50
2023-03-23T23:15:16.279Z,12.50
2023-03-23T23:17:45.562Z,12.40
2023-03-23T23:20:13.086Z,12.40
2023-03-23T23:22:40.616Z,12.40
2023-03-23T23:25:08.234Z,12.40
2023-03-23T23:27:35.945Z,12.30
2023-03-23T23:30:03.484Z,12.30
2023-03-23T23:32:31.037Z,12.30
2023-03-23T23:34:58.593Z,12.20
2023-03-23T23:37:26.892Z,12.30
2023-03-23T23:39:54.414Z,12.20
2023-03-23T23:42:22.301Z,12.20
2023-03-23T23:44:50.297Z,12.20
2023-03-23T23:47:17.826Z,12.20
2023-03-23T23:49:46.155Z,12.20
2023-03-23T23:52:13.683Z,12.20
2023-03-23T23:54:41.205Z,12.20
2023-03-23T23:57:09.778Z,12.10
2023-03-23T23:59:37.250Z,12.10
